CYVM

Qikiqtarjuaq Airport

Qikiqtarjuaq, Canada
TAF CYVM 230638Z 2307/2319 05005KT P6SM SCT025 OVC070 TEMPO 2307/2309 P6SM -SN BKN020 OVC070 FM230900 01010KT P6SM -SN OVC025 TEMPO 2309/2319 11/2SM -SN OVC012 RMK FCST BASED ON AUTO OBS. NXT FCST BY 231300Z
Issued Valid From Valid To
Apr-23 @ 06:38 UTC
(3 hours ago)
Apr-23 @ 07:00 UTC
(3 hours ago)
Apr-23 @ 19:00 UTC
(in 9 hours)
Expired Click to View Apr-23 @ 07:00 to Apr-23 @ 09:00
TAF CYVM 230638Z 2307/2319 05005KT P6SM SCT025 OVC070
Wind Visibility Clouds
50° at 5 knots Greater than 6 miles
  • Scattered at 2,500' AGL
  • Overcast at 7,000' AGL
Expired Click to View Apr-23 @ 07:00 to Apr-23 @ 09:00
TEMPO 2307/2309 P6SM -SN BKN020 OVC070
Visibility Clouds Conditions
Greater than 6 miles
  • Broken at 2,000' AGL
  • Overcast at 7,000' AGL
  • Light Snow
From Apr-23 @ 09:00 to Apr-23 @ 19:00
FM230900 01010KT P6SM -SN OVC025
Wind Visibility Clouds Conditions
10° at 10 knots Greater than 6 miles
  • Overcast at 2,500' AGL
  • Light Snow
Temporary Apr-23 @ 09:00 to Apr-23 @ 19:00
TEMPO 2309/2319 11/2SM -SN OVC012 RMK FCST BASED ON AUTO OBS. NXT FCST BY 231300Z
Visibility Clouds Conditions
1 1/2 miles
  • Overcast at 1,200' AGL
  • Light Snow
TAF CYVM 230638Z 2307/2319 05005KT P6SM SCT025 OVC070 TEMPO 2307/2309 P6SM -SN BKN020 OVC070 FM230900 01010KT P6SM -SN OVC025 TEMPO 2309/2319 11/2SM -SN OVC012 RMK FCST BASED ON AUTO OBS. NXT FCST BY 231300Z
Issued Apr-23 @ 06:38 UTC
(3 hours ago)
Valid From Apr-23 @ 07:00 UTC
(3 hours ago)
Valid To Apr-23 @ 19:00 UTC
(in 9 hours)
Apr-23 @ 07:00 - Apr-23 @ 09:00
Wind Visibility
50° at 5 knots Greater than 6 miles
Clouds
  • Scattered at 2,500' AGL
  • Overcast at 7,000' AGL
Apr-23 @ 07:00 - Apr-23 @ 09:00
Clouds
  • Broken at 2,000' AGL
  • Overcast at 7,000' AGL
Conditions
  • Light Snow
From Apr-23 @ 09:00 - Apr-23 @ 19:00
Wind Visibility
10° at 10 knots Greater than 6 miles
Clouds
  • Overcast at 2,500' AGL
Conditions
  • Light Snow
Temporary Apr-23 @ 09:00 - Apr-23 @ 19:00
Clouds
  • Overcast at 1,200' AGL
Conditions
  • Light Snow